RELEVES METEO NEUVILLE
Donnes mto: Actuelle samedi, 06/03/2021 12:25
Date Horaire Temp. E. Hum. E. P.atmo. Pluie Vent Direction Direction P. de rose Temp au vent Rafales
06/03/2021 12:25 6,4 C 58 % 1032,1 hPa 0,0 mm 8,2 km/h (2 Bft) NE 43 -1,2 C 4,9 C 20,9 km/h (4 Bft)
06/03/2021 12:20 6,4 C 58 % 1032,2 hPa 0,0 mm 10,0 km/h (2 Bft) N-NE 22 -1,2 C 3,6 C 24,1 km/h (4 Bft)
06/03/2021 12:15 6,3 C 60 % 1032,2 hPa 0,0 mm 9,4 km/h (2 Bft) N-NE 18 -0,9 C 3,9 C 19,3 km/h (3 Bft)
06/03/2021 12:10 6,3 C 59 % 1032,2 hPa 0,0 mm 8,1 km/h (2 Bft) N-NE 24 -1,1 C 4,9 C 16,1 km/h (3 Bft)
06/03/2021 12:05 6,1 C 59 % 1032,3 hPa 0,0 mm 8,4 km/h (2 Bft) N 360 -1,3 C 4,4 C 17,7 km/h (3 Bft)
06/03/2021 12:00 6,1 C 60 % 1032,4 hPa 0,0 mm 8,3 km/h (2 Bft) N 355 -1,1 C 4,5 C 16,1 km/h (3 Bft)
06/03/2021 11:55 5,9 C 63 % 1032,4 hPa 0,0 mm 6,6 km/h (2 Bft) N-NE 26 -0,6 C 5,8 C 14,5 km/h (3 Bft)
06/03/2021 11:50 5,7 C 66 % 1032,3 hPa 0,0 mm 4,2 km/h (1 Bft) NE 44 -0,1 C 5,7 C 11,3 km/h (2 Bft)
06/03/2021 11:45 5,5 C 65 % 1032,3 hPa 0,0 mm 7,3 km/h (2 Bft) N-NE 28 -0,5 C 4,7 C 14,5 km/h (3 Bft)
06/03/2021 11:40 5,7 C 63 % 1032,3 hPa 0,0 mm 3,8 km/h (1 Bft) N-NE 24 -0,8 C 5,7 C 14,5 km/h (3 Bft)
06/03/2021 11:35 5,8 C 63 % 1032,4 hPa 0,0 mm 1,3 km/h (1 Bft) O-SO 240 -0,7 C 5,8 C 8,0 km/h (2 Bft)
06/03/2021 11:30 5,6 C 66 % 1032,4 hPa 0,0 mm 1,4 km/h (1 Bft) NE 54 -0,2 C 5,6 C 6,4 km/h (2 Bft)
06/03/2021 11:25 5,2 C 65 % 1032,5 hPa 0,0 mm 1,4 km/h (1 Bft) E-NE 63 -0,8 C 5,2 C 8,0 km/h (2 Bft)
06/03/2021 11:20 5,2 C 66 % 1032,4 hPa 0,0 mm 1,4 km/h (1 Bft) E 90 -0,6 C 5,2 C 8,0 km/h (2 Bft)
06/03/2021 11:15 4,8 C 70 % 1032,4 hPa 0,0 mm 4,7 km/h (1 Bft) N 350 -0,2 C 4,8 C 12,9 km/h (3 Bft)
06/03/2021 11:10 4,7 C 71 % 1032,5 hPa 0,0 mm 2,0 km/h (1 Bft) E-NE 57 -0,1 C 4,7 C 11,3 km/h (2 Bft)
06/03/2021 11:05 4,2 C 70 % 1032,6 hPa 0,0 mm 5,0 km/h (1 Bft) N 355 -0,8 C 4,2 C 11,3 km/h (2 Bft)
06/03/2021 11:00 4,1 C 71 % 1032,7 hPa 0,0 mm 3,4 km/h (1 Bft) NE 34 -0,7 C 4,1 C 11,3 km/h (2 Bft)
06/03/2021 10:55 4,1 C 71 % 1032,6 hPa 0,0 mm 3,3 km/h (1 Bft) NE 42 -0,7 C 4,1 C 11,3 km/h (2 Bft)
06/03/2021 10:50 3,9 C 70 % 1032,7 hPa 0,0 mm 6,9 km/h (2 Bft) N-NE 28 -1,1 C 3,4 C 14,5 km/h (3 Bft)
06/03/2021 10:45 3,8 C 72 % 1032,8 hPa 0,0 mm 3,2 km/h (1 Bft) N 5 -0,8 C 3,8 C 11,3 km/h (2 Bft)
_ Min-Heure 07:05 12:20 03:25 - 00:00 - - 05:45 07:05 00:00
Minimum _ -2,4 C 58 % 1031,7 hPa - 0,0 km/h (0 Bft) - - -4,1 C -2,4 C 0,0 km/h (0 Bft)
_ Max-Heure 12:20 07:05 09:05 00:00 12:20 - - 11:10 11:35 12:20
Maximum _ 6,4 C 89 % 1033,0 hPa 0,0 mm 10,0 km/h
N-NE (2 Bft)
- - -0,1 C 5,8 C 24,1 km/h
NE (4 Bft)
Moyenne _ 0,1 C 81 % 1032,2 hPa #0,0 mm 1,2 km/h (1 Bft) N-NE - -2,9 C -0,0 C 3,4 km/h (1 Bft)
NEUVILLE ST REMY